Nearby METAR Reports

 

KMTN - Baltimore/Martin, Maryland, USA
Distance from station: SSE 8mi, 13km
Updated: Wed, 29-Jul-2015 12:45pm EDT
Partly cloudy
Partly cloudy
 Wind from SE
Wind: SE 7 mph , 11 km/h
Temperature: 88°F , 31°C
Heat Index: 103°F , 39°C
Dew Point: 79°F , 26°C
Humidity: 75%
Barometer: 30.01 inHg , 1016.3 hPa
Clouds: Partly cloudy
Visibility: 10 miles , 16 km
Cloud details: Partly cloudy 15000 ft
2015/07/29 16:45 KMTN 291645Z 14006KT 10SM SCT150 31/26 A3001
KDMH - Baltimore/Dwntwn, Maryland, USA
Distance from station: SW 12mi, 19km
Updated: Wed, 29-Jul-2015 12:54pm EDT

 
Temperature: 86°F , 30°C
Heat Index: 93°F , 34°C
Dew Point: 73°F , 23°C
Humidity: 66%
Barometer: 30.00 inHg , 1015.9 hPa
2015/07/29 16:54 KDMH 291654Z AUTO 30/23 A3000 RMK AO1 SLP157 T03000228
 
KBWI - Balto/Wash Intl, Maryland, USA
Distance from station: SSW 20mi, 33km
Updated: Wed, 29-Jul-2015 12:54pm EDT
Mostly cloudy
Mostly cloudy
 Wind from SSW
Wind: SSW 3 mph , 6 km/h
Temperature: 86°F , 30°C
Heat Index: 92°F , 33°C
Dew Point: 72°F , 22°C
Humidity: 62%
Barometer: 29.99 inHg , 1015.6 hPa
Clouds: Mostly cloudy
Visibility: 9 miles , 14 km
Cloud details: Mostly cloudy 3400 ft
Mostly cloudy 5500 ft
Mostly cloudy 11000 ft
Mostly cloudy 25000 ft
2015/07/29 16:54 KBWI 291654Z 21003KT 9SM BKN034CB BKN055 BKN110 BKN250 30/22 A2999 RMK AO2 SLP155 CB S MOV E TCU ALQDS VCSH S T03000222
KDMW - Carroll Cnty, Maryland, USA
Distance from station: WNW 30mi, 48km
Updated: Wed, 29-Jul-2015 1:35pm EDT
Clear
Clear
 Wind from WSW
Wind: WSW 6 mph , 9 km/h
Temperature: 86°F , 30°C
Heat Index: 95°F , 35°C
Dew Point: 75°F , 24°C
Humidity: 70%
Barometer: 30.02 inHg , 1016.6 hPa
Clouds: Clear
Visibility: 10 miles , 16 km
2015/07/29 17:35 KDMW 291735Z AUTO 25005KT 10SM CLR 30/24 A3002 RMK AO2
 
KNAK - Annapolis/Naval, Maryland, USA
Distance from station: S 30mi, 48km
Updated: Wed, 29-Jul-2015 1:31pm EDT
Heavy rain, Fog, Overcast
Heavy rain, Fog, Overcast
 Wind from SSW
Wind: SSW 5 mph , 7 km/h
Temperature: 75°F , 24°C
Dew Point: 72°F , 22°C
Humidity: 89%
Barometer: 30.00 inHg , 1015.9 hPa
Summary: Heavy rain, Fog
Clouds: Overcast
Visibility: 1/2 mile , 2 km
Cloud details: Mostly cloudy 4100 ft
Mostly cloudy 5500 ft
Overcast 8000 ft
2015/07/29 17:31 KNAK 291731Z AUTO 20004KT 1/2SM +RA FG BKN041 BKN055 OVC080 24/22 A3000 RMK AO2 P0037 T02440222
KW29 - Stevensville, Maryland, USA
Distance from station: SSE 31mi, 50km
Updated: Wed, 29-Jul-2015 1:36pm EDT

 Wind from S
Wind: S 3 mph , 6 km/h
Temperature: 84°F , 29°C
Heat Index: 89°F , 32°C
Dew Point: 72°F , 22°C
Humidity: 66%
Barometer: 30.00 inHg , 1015.9 hPa
Visibility: 10 miles , 16 km
2015/07/29 17:36 KW29 291736Z AUTO 17003KT 10SM 29/22 A3000 RMK AO1
 
KCGS - College Park, Maryland, USA
Distance from station: SW 38mi, 61km
Updated: Wed, 29-Jul-2015 1:30pm EDT
Overcast
Overcast
 Wind from S
Wind: S 8 mph , 13 km/h
Temperature: 88°F , 31°C
Heat Index: 93°F , 34°C
Dew Point: 70°F , 21°C
Humidity: 55%
Barometer: 29.99 inHg , 1015.6 hPa
Clouds: Overcast
Visibility: 10 miles , 16 km
Cloud details: Mostly cloudy 3600 ft
Mostly cloudy 4700 ft
Overcast 6500 ft
2015/07/29 17:30 KCGS 291730Z AUTO 18007KT 130V190 10SM BKN036 BKN047 OVC065 31/21 A2999 RMK AO1
KGAI - Gaithersburg, Maryland, USA
Distance from station: WSW 40mi, 65km
Updated: Wed, 29-Jul-2015 1:35pm EDT
Overcast
Overcast
 Wind from SSE
Wind: SSE 5 mph , 7 km/h
Temperature: 82°F , 28°C
Heat Index: 86°F , 30°C
Dew Point: 72°F , 22°C
Humidity: 70%
Barometer: 30.04 inHg , 1017.3 hPa
Clouds: Overcast
Visibility: 10 miles , 16 km
Cloud details: Mostly cloudy 2600 ft
Mostly cloudy 3400 ft
Overcast 4800 ft
2015/07/29 17:35 KGAI 291735Z AUTO 16004KT 10SM BKN026 BKN034 OVC048 28/22 A3004 RMK AO1
 
KTHV - York, Pennsylvania, USA
Distance from station: NNW 40mi, 65km
Updated: Wed, 29-Jul-2015 12:53pm EDT
Mostly cloudy
Mostly cloudy
 Wind from SSW
Wind: SSW 7 mph , 11 km/h
Temperature: 84°F , 29°C
Heat Index: 90°F , 32°C
Dew Point: 73°F , 23°C
Humidity: 70%
Barometer: 30.01 inHg , 1016.3 hPa
Clouds: Mostly cloudy
Visibility: 10 miles , 16 km
Cloud details: Few Clouds 2600 ft
Partly cloudy 3500 ft
Mostly cloudy 8000 ft
2015/07/29 16:53 KTHV 291653Z AUTO 20006KT 10SM FEW026 SCT035 BKN080 29/23 A3001 RMK AO2 SLP162 T02890233
KFDK - Frederick, Maryland, USA
Distance from station: W 47mi, 75km
Updated: Wed, 29-Jul-2015 12:50pm EDT
Mostly cloudy
Mostly cloudy
 Wind from calm
Wind: Calm
Temperature: 86°F , 30°C
Heat Index: 95°F , 35°C
Dew Point: 75°F , 24°C
Humidity: 70%
Barometer: 30.04 inHg , 1017.3 hPa
Clouds: Mostly cloudy
Visibility: 7 miles , 11 km
Cloud details: Mostly cloudy 2500 ft
2015/07/29 16:50 KFDK 291650Z 00000KT 7SM BKN025 30/24 A3004
 
KESN - Easton/Newnam, Maryland, USA
Distance from station: SSE 48mi, 78km
Updated: Wed, 29-Jul-2015 12:50pm EDT
Partly cloudy
Partly cloudy
 Wind from SSW
Wind: SSW 12 mph , 19 km/h
Temperature: 90°F , 32°C
Heat Index: 99°F , 37°C
Dew Point: 73°F , 23°C
Humidity: 59%
Barometer: 30.04 inHg , 1017.3 hPa
Clouds: Partly cloudy
Visibility: 10 miles , 16 km
Cloud details: Partly cloudy 3000 ft
2015/07/29 16:50 KESN 291650Z 20010KT 10SM SCT030 32/23 A3004
KDCA - Washington/Natl, Washington D.c., USA
Distance from station: SW 49mi, 79km
Updated: Wed, 29-Jul-2015 12:52pm EDT
Mostly cloudy
Mostly cloudy
 Wind from S
Wind: S 13 mph , 20 km/h
Temperature: 88°F , 31°C
Heat Index: 98°F , 37°C
Dew Point: 75°F , 24°C
Humidity: 66%
Barometer: 30.00 inHg , 1015.9 hPa
Clouds: Mostly cloudy
Visibility: 10 miles , 16 km
Cloud details: Few Clouds 3500 ft
Partly cloudy 5500 ft
Mostly cloudy 7000 ft
Mostly cloudy 25000 ft
2015/07/29 16:52 KDCA 291652Z 17011KT 10SM FEW035 SCT055 BKN070 BKN250 31/24 A3000 RMK AO2 SLP159 T03110244
 
KLNS - Lancaster, Pennsylvania, USA
Distance from station: N 49mi, 79km
Updated: Wed, 29-Jul-2015 12:53pm EDT
Partly cloudy
Partly cloudy
 Wind from SSE
Wind: SSE 10 mph , 17 km/h
Temperature: 86°F , 30°C
Heat Index: 91°F , 33°C
Dew Point: 70°F , 21°C
Humidity: 59%
Barometer: 30.00 inHg , 1015.9 hPa
Clouds: Partly cloudy
Visibility: 10 miles , 16 km
Cloud details: Partly cloudy 3900 ft
2015/07/29 16:53 KLNS 291653Z 15009KT 10SM SCT039 30/21 A3000 RMK AO2 SLP156 T03000206
KILG - Wilmington, Delaware, USA
Distance from station: ENE 50mi, 81km
Updated: Wed, 29-Jul-2015 12:51pm EDT
Clear
Clear
 Wind from SSW
Wind: SSW 8 mph , 13 km/h
Temperature: 88°F , 31°C
Heat Index: 96°F , 36°C
Dew Point: 73°F , 23°C
Humidity: 62%
Barometer: 30.00 inHg , 1015.9 hPa
Clouds: Clear
Visibility: 10 miles , 16 km
2015/07/29 16:51 KILG 291651Z 20007KT 160V230 10SM CLR 31/23 A3000 RMK AO2 SLP158 T03060228